Time;durP1;ratioP1;P1;durP2;ratioP2;P2;SDS_P1;SDS_P2;PMS_P1;PMS_P2;Temp;Humidity;BMP_temperature;BMP_pressure;BME280_temperature;BME280_humidity;BME280_pressure;Samples;Min_cycle;Max_cycle;Signal;HPM_P1;HPM_P2
2023/05/13 00:00:23;;;;;;;8.95;5.90;;;12.70;99.90;;;;;;5052349;28;20374;-72
2023/05/13 00:02:48;;;;;;;8.55;5.72;;;12.70;99.90;;;;;;5053249;28;20096;-71
2023/05/13 00:05:14;;;;;;;9.35;5.28;;;12.70;99.90;;;;;;5051951;28;20056;-72
2023/05/13 00:07:40;;;;;;;8.05;5.47;;;12.70;99.90;;;;;;5052146;28;20041;-71
2023/05/13 00:10:06;;;;;;;9.95;5.15;;;12.60;99.90;;;;;;5048181;28;20042;-71
2023/05/13 00:12:32;;;;;;;8.98;5.47;;;12.60;99.90;;;;;;5033407;28;20038;-72
2023/05/13 00:14:57;;;;;;;10.82;5.90;;;12.50;99.90;;;;;;5037133;28;20051;-72
2023/05/13 00:17:23;;;;;;;10.73;6.50;;;12.50;99.90;;;;;;5050105;28;20045;-71
2023/05/13 00:19:48;;;;;;;9.40;5.93;;;12.50;99.90;;;;;;5034210;28;20037;-71
2023/05/13 00:22:14;;;;;;;9.00;5.95;;;12.40;99.90;;;;;;5047699;28;20045;-72
2023/05/13 00:24:39;;;;;;;10.52;7.45;;;12.40;99.90;;;;;;5041645;28;20037;-71
2023/05/13 00:27:05;;;;;;;12.40;7.45;;;12.30;99.90;;;;;;5052900;28;20441;-71
2023/05/13 00:29:31;;;;;;;9.13;6.00;;;12.20;99.90;;;;;;5054523;28;20489;-72
2023/05/13 00:31:56;;;;;;;10.65;6.43;;;12.20;99.90;;;;;;5056224;28;20041;-71
2023/05/13 00:34:23;;;;;;;12.13;7.05;;;12.20;99.90;;;;;;5057130;28;20041;-72
2023/05/13 00:36:48;;;;;;;11.45;6.63;;;12.20;99.90;;;;;;5038129;28;20039;-72
2023/05/13 00:39:14;;;;;;;9.38;6.47;;;12.20;99.90;;;;;;5036875;28;20124;-71
2023/05/13 00:41:39;;;;;;;10.88;6.25;;;12.10;99.90;;;;;;5036539;28;20041;-71
2023/05/13 00:44:05;;;;;;;11.63;7.93;;;12.10;99.90;;;;;;5035354;28;20042;-71
2023/05/13 00:46:34;;;;;;;12.98;7.03;;;12.10;99.90;;;;;;5051724;28;20045;-72
2023/05/13 00:49:00;;;;;;;9.57;6.20;;;12.00;99.90;;;;;;5036765;28;20485;-71
2023/05/13 00:51:25;;;;;;;10.80;6.72;;;12.00;99.90;;;;;;5036345;28;20525;-71
2023/05/13 00:53:51;;;;;;;12.70;6.63;;;12.10;99.90;;;;;;5035536;28;20053;-71
2023/05/13 00:56:19;;;;;;;10.20;6.10;;;12.10;99.90;;;;;;5040972;28;20041;-71
2023/05/13 00:58:45;;;;;;;10.57;6.57;;;12.10;99.90;;;;;;5036547;28;20033;-71
2023/05/13 01:01:33;;;;;;;10.25;6.45;;;12.20;99.90;;;;;;5036656;28;20037;-71
2023/05/13 01:04:01;;;;;;;10.10;6.78;;;12.20;99.90;;;;;;5036723;28;20048;-71
2023/05/13 01:06:44;;;;;;;8.73;6.40;;;12.10;99.90;;;;;;5036065;28;20041;-71
2023/05/13 01:09:26;;;;;;;11.68;6.78;;;12.10;99.90;;;;;;5051826;28;20056;-71
2023/05/13 01:11:54;;;;;;;9.90;6.50;;;12.00;99.90;;;;;;5054977;28;20045;-71
2023/05/13 01:14:31;;;;;;;10.38;6.57;;;11.90;99.90;;;;;;5055505;28;20041;-71
2023/05/13 01:17:17;;;;;;;9.85;6.60;;;11.90;99.90;;;;;;5054387;28;20075;-71
2023/05/13 01:19:53;;;;;;;12.05;7.10;;;11.90;99.90;;;;;;5054589;28;20505;-71
2023/05/13 01:22:18;;;;;;;9.52;6.43;;;11.90;99.90;;;;;;5043978;28;20072;-71
2023/05/13 01:24:44;;;;;;;13.55;7.20;;;11.80;99.90;;;;;;5055489;28;20132;-71
2023/05/13 01:27:10;;;;;;;11.07;6.90;;;11.70;99.90;;;;;;5045394;28;20049;-72
2023/05/13 01:29:36;;;;;;;12.50;7.18;;;11.70;99.90;;;;;;5035378;28;20503;-72
2023/05/13 01:32:03;;;;;;;8.65;6.63;;;11.70;99.90;;;;;;5046979;28;20033;-71
2023/05/13 01:34:29;;;;;;;11.80;6.65;;;11.70;99.90;;;;;;5037857;28;20512;-72
2023/05/13 01:36:56;;;;;;;10.32;6.82;;;11.70;99.90;;;;;;5039557;28;20489;-72
2023/05/13 01:39:23;;;;;;;11.43;6.75;;;11.70;99.90;;;;;;5051811;28;20044;-71
2023/05/13 01:41:48;;;;;;;8.55;6.05;;;11.70;99.90;;;;;;5048828;28;20482;-71
2023/05/13 01:44:14;;;;;;;9.45;6.60;;;11.70;99.90;;;;;;5034036;28;20037;-71
2023/05/13 01:46:42;;;;;;;9.32;6.38;;;11.70;99.90;;;;;;5039455;28;20072;-71
2023/05/13 01:49:09;;;;;;;10.07;6.25;;;11.70;99.90;;;;;;5066524;28;20032;-71
2023/05/13 01:51:36;;;;;;;9.10;6.90;;;11.70;99.90;;;;;;5051316;28;20045;-71
2023/05/13 01:54:03;;;;;;;10.65;7.03;;;11.70;99.90;;;;;;5055517;28;20037;-71
2023/05/13 01:56:28;;;;;;;10.25;6.55;;;11.70;99.90;;;;;;5053603;28;20041;-71
2023/05/13 01:58:54;;;;;;;9.35;6.45;;;11.60;99.90;;;;;;5051918;28;20044;-71
2023/05/13 02:01:19;;;;;;;10.93;7.03;;;11.50;99.90;;;;;;5054629;28;20032;-71
2023/05/13 02:03:45;;;;;;;8.82;6.47;;;11.50;99.90;;;;;;5039632;28;20037;-71
2023/05/13 02:06:10;;;;;;;11.48;7.45;;;11.50;99.90;;;;;;5042044;28;20060;-71
2023/05/13 02:08:36;;;;;;;13.65;7.65;;;11.40;99.90;;;;;;5044654;28;20037;-72
2023/05/13 02:11:01;;;;;;;11.45;7.40;;;11.40;99.90;;;;;;5034294;28;20076;-71
2023/05/13 02:13:27;;;;;;;11.20;7.40;;;11.40;99.90;;;;;;5038212;28;21730;-71
2023/05/13 02:15:53;;;;;;;11.95;7.38;;;11.30;99.90;;;;;;5069891;28;20477;-71
2023/05/13 02:18:19;;;;;;;12.15;7.85;;;11.30;99.90;;;;;;5043981;28;20079;-71
2023/05/13 02:20:45;;;;;;;10.38;7.32;;;11.20;99.90;;;;;;5057472;28;20045;-71
2023/05/13 02:23:11;;;;;;;9.68;7.25;;;11.20;99.90;;;;;;5049399;28;20087;-71
2023/05/13 02:25:36;;;;;;;10.75;7.55;;;11.30;99.90;;;;;;5051770;28;20041;-71
2023/05/13 02:28:02;;;;;;;17.58;7.72;;;11.20;99.90;;;;;;5036375;28;20673;-70
2023/05/13 02:30:28;;;;;;;13.48;9.07;;;11.10;99.90;;;;;;5052145;28;20119;-71
2023/05/13 02:32:55;;;;;;;10.70;7.88;;;11.00;99.90;;;;;;5036972;28;20067;-71
2023/05/13 02:35:21;;;;;;;10.80;7.60;;;11.00;99.90;;;;;;5038460;28;20397;-71
2023/05/13 02:37:47;;;;;;;10.63;8.65;;;11.00;99.90;;;;;;5052146;28;20120;-71
2023/05/13 02:40:13;;;;;;;10.55;8.07;;;11.00;99.90;;;;;;5054489;28;20120;-71
2023/05/13 02:42:39;;;;;;;11.13;8.18;;;11.00;99.90;;;;;;5043375;28;20112;-71
2023/05/13 02:45:05;;;;;;;12.98;8.38;;;10.90;99.90;;;;;;5043211;28;20521;-71
2023/05/13 02:47:30;;;;;;;12.32;8.57;;;10.90;99.90;;;;;;5039362;28;20507;-71
2023/05/13 02:49:56;;;;;;;12.05;8.27;;;10.90;99.90;;;;;;5050162;28;20171;-71
2023/05/13 02:52:22;;;;;;;12.93;8.85;;;10.80;99.90;;;;;;5054956;28;20045;-71
2023/05/13 02:54:47;;;;;;;12.45;8.90;;;10.80;99.90;;;;;;5054478;28;20041;-71
2023/05/13 02:57:13;;;;;;;12.18;9.15;;;10.80;99.90;;;;;;5052044;28;20032;-71
2023/05/13 02:59:39;;;;;;;12.88;8.38;;;10.80;99.90;;;;;;5034194;28;20481;-71
2023/05/13 03:02:04;;;;;;;12.55;9.23;;;10.80;99.90;;;;;;5033894;28;20029;-71
2023/05/13 03:04:30;;;;;;;13.10;8.82;;;10.80;99.90;;;;;;5051609;28;20389;-71
2023/05/13 03:06:55;;;;;;;14.10;9.13;;;10.80;99.90;;;;;;5053345;28;20041;-71
2023/05/13 03:09:21;;;;;;;12.95;9.45;;;10.80;99.90;;;;;;5045588;28;20045;-71
2023/05/13 03:11:47;;;;;;;13.70;9.43;;;10.80;99.90;;;;;;5042771;28;20044;-71
2023/05/13 03:14:13;;;;;;;12.75;9.48;;;10.80;99.90;;;;;;5041052;28;20106;-71
2023/05/13 03:16:39;;;;;;;12.57;9.30;;;10.80;99.90;;;;;;5037830;28;20092;-71
2023/05/13 03:19:05;;;;;;;12.32;9.18;;;10.80;99.90;;;;;;5048608;28;20468;-71
2023/05/13 03:21:30;;;;;;;12.70;9.02;;;10.90;99.90;;;;;;5040515;28;20041;-71
2023/05/13 03:23:56;;;;;;;14.60;9.43;;;10.80;99.90;;;;;;5033132;28;20040;-71
2023/05/13 03:26:21;;;;;;;14.63;9.48;;;10.90;99.90;;;;;;5039624;28;20038;-70
2023/05/13 03:28:47;;;;;;;13.10;9.52;;;10.80;99.90;;;;;;5033958;28;20037;-72
2023/05/13 03:31:13;;;;;;;12.40;9.52;;;10.80;99.90;;;;;;5044133;28;20037;-72
2023/05/13 03:33:38;;;;;;;13.02;9.95;;;10.80;99.90;;;;;;5053786;28;20064;-71
2023/05/13 03:36:05;;;;;;;14.70;10.63;;;10.80;99.90;;;;;;5048500;28;20033;-70
2023/05/13 03:38:31;;;;;;;12.73;9.63;;;10.80;99.90;;;;;;5032092;28;20215;-71
2023/05/13 03:40:57;;;;;;;14.30;10.63;;;10.80;99.90;;;;;;5054939;28;20043;-71
2023/05/13 03:43:22;;;;;;;12.52;10.88;;;10.70;99.90;;;;;;5049603;28;20043;-71
2023/05/13 03:45:49;;;;;;;16.20;11.27;;;10.70;99.90;;;;;;5052644;28;20425;-70
2023/05/13 03:48:15;;;;;;;13.68;10.25;;;10.70;99.90;;;;;;5043409;28;20119;-71
2023/05/13 03:50:40;;;;;;;15.23;11.05;;;10.70;99.90;;;;;;5037157;28;20176;-71
2023/05/13 03:53:06;;;;;;;12.82;9.98;;;10.70;99.90;;;;;;5035734;28;20080;-71
2023/05/13 03:55:32;;;;;;;14.95;10.40;;;10.70;99.90;;;;;;5051470;28;20066;-71
2023/05/13 03:57:58;;;;;;;12.65;9.85;;;10.70;99.90;;;;;;5053121;28;20036;-70
2023/05/13 04:00:23;;;;;;;13.07;10.32;;;10.70;99.90;;;;;;5044720;28;20120;-71
2023/05/13 04:02:49;;;;;;;12.95;10.00;;;10.70;99.90;;;;;;5044332;28;20060;-71
2023/05/13 04:05:15;;;;;;;14.73;10.25;;;10.70;99.90;;;;;;5051358;28;20073;-71
2023/05/13 04:07:40;;;;;;;15.32;11.30;;;10.60;99.90;;;;;;5050236;28;20397;-71
2023/05/13 04:10:06;;;;;;;12.80;10.52;;;10.60;99.90;;;;;;5040774;28;20029;-71
2023/05/13 04:12:32;;;;;;;14.35;11.02;;;10.60;99.90;;;;;;5035164;28;20132;-71
2023/05/13 04:14:58;;;;;;;13.88;10.77;;;10.60;99.90;;;;;;5049438;28;20131;-70
2023/05/13 04:17:24;;;;;;;17.25;10.68;;;10.70;99.90;;;;;;5052198;28;20115;-71
2023/05/13 04:19:53;;;;;;;16.77;11.15;;;10.70;99.90;;;;;;5036022;28;20040;-71
2023/05/13 04:22:20;;;;;;;15.18;11.00;;;10.70;99.90;;;;;;5035234;28;20046;-70
2023/05/13 04:24:46;;;;;;;15.43;11.38;;;10.70;99.90;;;;;;5045471;28;20040;-71
2023/05/13 04:27:11;;;;;;;15.63;11.43;;;10.70;99.90;;;;;;5039346;28;20108;-71
2023/05/13 04:29:37;;;;;;;13.50;10.77;;;10.80;99.90;;;;;;5049070;28;20049;-71
2023/05/13 04:32:03;;;;;;;16.05;11.27;;;10.80;99.90;;;;;;5049854;28;20049;-70
2023/05/13 04:34:28;;;;;;;16.15;11.85;;;10.80;99.90;;;;;;5047474;28;20073;-71
2023/05/13 04:36:54;;;;;;;14.82;10.73;;;10.80;99.90;;;;;;5052018;28;20146;-71
2023/05/13 04:39:19;;;;;;;13.20;10.65;;;10.90;99.90;;;;;;5050638;28;20048;-70
2023/05/13 04:41:45;;;;;;;15.02;10.85;;;10.90;99.90;;;;;;5050007;28;20041;-71
2023/05/13 04:44:10;;;;;;;16.42;11.18;;;10.90;99.90;;;;;;5034962;28;20053;-71
2023/05/13 04:46:39;;;;;;;17.50;10.85;;;11.00;99.90;;;;;;5043169;28;20087;-72
2023/05/13 04:49:05;;;;;;;15.27;10.40;;;11.00;99.90;;;;;;5032878;28;20091;-71
2023/05/13 04:51:31;;;;;;;15.07;10.43;;;11.10;99.90;;;;;;5044890;28;20518;-71
2023/05/13 04:53:57;;;;;;;16.50;10.98;;;11.20;99.90;;;;;;5038569;28;20037;-71
2023/05/13 04:56:23;;;;;;;16.67;9.98;;;11.20;99.90;;;;;;5031312;28;20033;-71
2023/05/13 04:58:48;;;;;;;14.10;10.52;;;11.30;99.90;;;;;;5041226;28;20029;-71
2023/05/13 05:01:14;;;;;;;18.13;10.85;;;11.30;99.90;;;;;;5035294;28;20379;-71
2023/05/13 05:03:40;;;;;;;12.52;9.88;;;11.30;99.90;;;;;;5038200;28;20381;-71
2023/05/13 05:06:05;;;;;;;17.48;9.77;;;11.50;99.90;;;;;;5030559;28;20041;-71
2023/05/13 05:08:31;;;;;;;13.23;9.93;;;11.50;99.90;;;;;;5039156;28;20040;-71
2023/05/13 05:10:58;;;;;;;14.43;9.98;;;11.50;99.90;;;;;;5047021;28;20049;-71
2023/05/13 05:13:24;;;;;;;14.50;10.20;;;11.60;99.90;;;;;;5039619;28;20033;-71
2023/05/13 05:15:49;;;;;;;16.00;10.48;;;11.60;99.90;;;;;;5044662;28;20026;-71
2023/05/13 05:18:15;;;;;;;15.18;9.77;;;11.70;99.90;;;;;;5040026;28;20056;-71
2023/05/13 05:20:41;;;;;;;13.35;9.15;;;11.80;99.90;;;;;;5053487;28;20048;-71
2023/05/13 05:23:07;;;;;;;12.95;9.77;;;11.80;99.90;;;;;;5056324;28;20043;-71
2023/05/13 05:25:33;;;;;;;13.70;9.68;;;11.90;99.90;;;;;;5066517;28;20040;-71
2023/05/13 05:27:59;;;;;;;14.52;9.50;;;11.90;99.90;;;;;;5065728;28;20394;-71
2023/05/13 05:30:24;;;;;;;12.48;8.93;;;11.90;99.90;;;;;;5056117;28;20037;-71
2023/05/13 05:32:50;;;;;;;15.32;9.68;;;12.10;99.90;;;;;;5054964;28;20041;-71
2023/05/13 05:35:18;;;;;;;13.38;9.63;;;12.20;99.90;;;;;;5054535;28;20564;-71
2023/05/13 05:37:44;;;;;;;13.18;9.45;;;12.20;99.90;;;;;;5054949;28;20507;-71
2023/05/13 05:40:10;;;;;;;14.73;8.98;;;12.30;99.90;;;;;;5055971;28;20049;-71
2023/05/13 05:42:36;;;;;;;14.30;10.00;;;12.30;99.90;;;;;;5054992;28;20045;-71
2023/05/13 05:45:02;;;;;;;13.70;9.88;;;12.40;99.90;;;;;;5049641;28;20045;-71
2023/05/13 05:47:28;;;;;;;15.13;9.60;;;12.40;99.90;;;;;;5035745;28;20513;-71
2023/05/13 05:49:53;;;;;;;15.40;8.32;;;12.50;99.90;;;;;;5038351;28;20055;-71
2023/05/13 05:52:19;;;;;;;12.85;8.85;;;12.60;99.90;;;;;;5054730;28;20057;-71
2023/05/13 05:54:44;;;;;;;11.82;9.07;;;12.70;99.90;;;;;;5054388;28;20120;-72
2023/05/13 05:57:10;;;;;;;15.20;9.43;;;12.80;99.90;;;;;;5049833;28;20072;-71
2023/05/13 05:59:36;;;;;;;11.95;8.98;;;12.80;99.90;;;;;;5052224;28;20477;-71
2023/05/13 06:02:01;;;;;;;16.08;9.40;;;12.90;99.90;;;;;;5044455;28;20044;-71
2023/05/13 06:04:27;;;;;;;14.20;9.77;;;13.00;99.90;;;;;;5051005;28;20529;-71
2023/05/13 06:06:55;;;;;;;16.25;9.25;;;13.10;99.90;;;;;;5017752;28;20045;-72
2023/05/13 06:09:21;;;;;;;14.18;9.40;;;13.20;99.90;;;;;;5055439;28;20043;-71
2023/05/13 06:11:46;;;;;;;14.30;9.68;;;13.40;99.90;;;;;;5053048;28;20123;-71
2023/05/13 06:14:12;;;;;;;15.60;10.25;;;13.30;99.90;;;;;;5052594;28;20090;-71
2023/05/13 06:16:38;;;;;;;14.20;9.20;;;13.30;99.90;;;;;;5054482;28;20041;-71
2023/05/13 06:19:03;;;;;;;14.68;10.00;;;13.40;99.90;;;;;;5068127;28;20458;-71
2023/05/13 06:21:30;;;;;;;16.10;9.93;;;13.50;99.90;;;;;;5050826;28;20402;-71
2023/05/13 06:23:56;;;;;;;15.10;10.07;;;13.50;99.90;;;;;;5047449;28;20481;-71
2023/05/13 06:26:22;;;;;;;13.60;8.77;;;13.70;99.90;;;;;;5051705;28;20037;-71
2023/05/13 06:28:47;;;;;;;15.18;9.45;;;13.80;99.90;;;;;;5046356;28;20421;-71
2023/05/13 06:31:13;;;;;;;13.05;8.40;;;13.90;99.90;;;;;;5048692;28;20417;-72
2023/05/13 06:33:39;;;;;;;12.70;8.25;;;14.00;99.90;;;;;;5037364;28;20057;-71
2023/05/13 06:36:05;;;;;;;12.82;8.63;;;14.10;99.90;;;;;;5036936;28;20033;-71
2023/05/13 06:38:30;;;;;;;12.35;8.35;;;14.20;99.90;;;;;;5040501;28;20041;-72
2023/05/13 06:40:56;;;;;;;13.70;7.75;;;14.30;99.90;;;;;;5035361;28;20040;-71
2023/05/13 06:43:21;;;;;;;14.40;7.80;;;14.40;99.90;;;;;;5049374;28;20133;-72
2023/05/13 06:45:48;;;;;;;12.50;7.70;;;14.50;99.90;;;;;;5052913;28;20029;-71
2023/05/13 06:48:14;;;;;;;10.80;7.75;;;14.60;99.90;;;;;;5045744;28;20065;-72
2023/05/13 06:50:40;;;;;;;12.48;7.68;;;14.60;99.90;;;;;;5049324;28;20087;-72
2023/05/13 06:53:06;;;;;;;13.43;6.78;;;14.70;99.90;;;;;;5040816;28;20061;-71
2023/05/13 06:55:31;;;;;;;11.40;7.40;;;14.80;99.90;;;;;;5045751;28;20033;-71
2023/05/13 06:57:57;;;;;;;10.82;7.00;;;14.90;99.90;;;;;;5031707;28;20120;-71
2023/05/13 07:00:22;;;;;;;12.13;6.90;;;15.00;99.90;;;;;;5046436;28;20037;-71
2023/05/13 07:02:48;;;;;;;14.43;7.25;;;15.10;99.90;;;;;;5053942;28;20037;-71
2023/05/13 07:05:13;;;;;;;9.95;6.95;;;15.20;99.90;;;;;;5053710;28;20489;-71
2023/05/13 07:07:39;;;;;;;10.30;6.97;;;15.30;99.90;;;;;;5052138;28;20552;-72
2023/05/13 07:10:05;;;;;;;9.68;6.85;;;15.40;99.90;;;;;;5039431;28;20060;-80
2023/05/13 07:12:31;;;;;;;9.82;7.50;;;15.50;99.90;;;;;;5040749;28;20049;-79
2023/05/13 07:14:57;;;;;;;12.90;7.57;;;15.60;99.90;;;;;;5033680;28;20048;-77
2023/05/13 07:17:22;;;;;;;13.73;7.25;;;15.60;99.90;;;;;;5052008;28;20037;-77
2023/05/13 07:19:48;;;;;;;12.27;7.50;;;15.60;99.90;;;;;;5033463;28;20042;-77
2023/05/13 07:22:13;;;;;;;10.82;6.82;;;15.80;99.90;;;;;;5035964;28;20086;-77
2023/05/13 07:24:40;;;;;;;12.18;7.28;;;15.80;99.90;;;;;;5049653;28;20042;-77
2023/05/13 07:27:06;;;;;;;12.48;7.40;;;15.90;99.90;;;;;;5051910;28;20471;-77
2023/05/13 07:29:32;;;;;;;11.73;6.88;;;16.00;99.90;;;;;;5037168;28;20038;-77
2023/05/13 07:32:05;;;;;;;12.10;6.95;;;16.20;99.90;;;;;;5051654;28;20477;-77
2023/05/13 07:34:31;;;;;;;9.68;6.00;;;16.20;99.90;;;;;;5035571;28;20401;-77
2023/05/13 07:36:57;;;;;;;12.80;6.90;;;16.30;99.90;;;;;;5031714;28;20040;-77
2023/05/13 07:39:23;;;;;;;11.45;7.00;;;16.40;99.90;;;;;;5051249;28;20048;-77
2023/05/13 07:41:49;;;;;;;15.38;6.90;;;16.50;99.90;;;;;;5053122;28;20067;-77
2023/05/13 07:44:14;;;;;;;9.70;6.53;;;16.50;99.90;;;;;;5043487;28;20091;-76
2023/05/13 07:46:40;;;;;;;10.73;6.32;;;16.60;99.90;;;;;;5048931;28;20038;-77
2023/05/13 07:49:07;;;;;;;9.15;6.22;;;16.60;99.90;;;;;;5045051;28;20505;-77
2023/05/13 07:51:34;;;;;;;8.52;6.40;;;16.70;99.90;;;;;;5034811;28;20536;-76
2023/05/13 07:53:59;;;;;;;11.07;6.95;;;16.70;99.90;;;;;;5051173;28;20041;-77
2023/05/13 07:56:25;;;;;;;11.60;6.25;;;16.70;99.90;;;;;;5050664;28;20110;-77
2023/05/13 07:58:51;;;;;;;10.25;5.88;;;16.80;99.90;;;;;;5045954;28;20029;-77
2023/05/13 08:01:16;;;;;;;11.30;6.00;;;17.00;99.90;;;;;;5036813;28;20493;-77
2023/05/13 08:03:42;;;;;;;10.35;6.40;;;17.00;99.90;;;;;;5051977;28;20036;-77
2023/05/13 08:06:07;;;;;;;10.27;7.00;;;17.20;99.90;;;;;;5050419;28;20072;-72
2023/05/13 08:08:33;;;;;;;10.07;5.60;;;17.30;99.90;;;;;;5032567;28;20516;-72
2023/05/13 08:10:58;;;;;;;11.18;5.75;;;17.40;99.90;;;;;;5033107;28;20128;-72
2023/05/13 08:13:24;;;;;;;11.07;5.50;;;17.50;99.90;;;;;;5032597;28;20048;-72
2023/05/13 08:15:51;;;;;;;12.32;6.28;;;17.50;99.90;;;;;;5032764;28;20052;-72
2023/05/13 08:18:16;;;;;;;9.65;6.20;;;17.50;99.90;;;;;;5033360;28;20049;-72
2023/05/13 08:20:42;;;;;;;9.82;5.65;;;17.60;99.90;;;;;;5032663;28;20091;-72
2023/05/13 08:23:08;;;;;;;8.32;5.78;;;17.60;99.90;;;;;;5035321;28;20528;-72
2023/05/13 08:25:33;;;;;;;10.48;5.90;;;17.70;99.90;;;;;;5052589;28;20077;-72
2023/05/13 08:27:59;;;;;;;11.63;6.18;;;17.60;99.90;;;;;;5051627;28;20033;-72
2023/05/13 08:30:24;;;;;;;10.02;5.95;;;17.80;99.90;;;;;;5052779;28;20041;-72
2023/05/13 08:32:50;;;;;;;13.55;6.13;;;17.90;99.90;;;;;;5052920;28;20040;-72
2023/05/13 08:35:15;;;;;;;11.73;6.35;;;18.00;99.90;;;;;;5052548;28;20045;-72
2023/05/13 08:37:41;;;;;;;9.15;6.07;;;18.10;99.90;;;;;;5051298;28;20120;-73
2023/05/13 08:40:09;;;;;;;10.60;6.13;;;18.20;99.90;;;;;;5050801;28;20099;-72
2023/05/13 08:42:38;;;;;;;9.27;5.10;;;18.20;99.90;;;;;;5032469;28;20042;-72
2023/05/13 08:45:06;;;;;;;9.32;4.97;;;18.20;99.90;;;;;;5033858;28;20098;-73
2023/05/13 08:47:54;;;;;;;9.00;5.03;;;18.30;99.90;;;;;;5052329;28;20056;-72
2023/05/13 08:50:20;;;;;;;11.73;5.50;;;18.50;99.90;;;;;;5053687;28;20112;-72
2023/05/13 08:52:46;;;;;;;9.40;4.72;;;18.40;99.90;;;;;;5049891;28;20049;-72
2023/05/13 08:55:12;;;;;;;9.05;4.40;;;18.50;99.90;;;;;;5036595;28;20029;-72
2023/05/13 08:57:38;;;;;;;8.30;3.97;;;18.60;99.90;;;;;;5039369;28;20068;-72
2023/05/13 09:00:04;;;;;;;6.90;3.70;;;18.70;99.90;;;;;;5056713;28;20485;-72
2023/05/13 09:02:30;;;;;;;9.32;4.72;;;18.80;99.90;;;;;;5055158;28;20167;-73
2023/05/13 09:05:01;;;;;;;9.65;4.30;;;18.90;99.90;;;;;;5054842;28;20533;-72
2023/05/13 09:07:29;;;;;;;8.20;4.18;;;18.90;99.90;;;;;;5039540;28;20050;-72
2023/05/13 09:09:55;;;;;;;6.97;4.30;;;19.00;99.90;;;;;;5043301;28;20122;-72
2023/05/13 09:12:43;;;;;;;10.15;4.50;;;19.20;99.90;;;;;;5034329;28;20069;-77
2023/05/13 09:15:28;;;;;;;8.35;4.82;;;19.20;99.90;;;;;;5040474;28;20040;-74
2023/05/13 09:18:06;;;;;;;8.48;3.85;;;19.30;99.90;;;;;;5047397;28;20143;-74
2023/05/13 09:20:33;;;;;;;7.63;3.63;;;19.30;99.90;;;;;;5049735;28;20036;-75
2023/05/13 09:23:02;;;;;;;8.90;3.38;;;19.50;99.90;;;;;;5048419;28;20048;-75
2023/05/13 09:25:29;;;;;;;7.38;3.20;;;19.50;99.90;;;;;;5055616;28;20041;-75
2023/05/13 09:27:57;;;;;;;8.30;3.67;;;19.60;99.90;;;;;;5055205;28;20170;-75
2023/05/13 09:30:28;;;;;;;8.68;3.67;;;19.60;99.90;;;;;;5052038;28;20443;-75
2023/05/13 09:33:12;;;;;;;12.70;4.03;;;19.70;99.90;;;;;;5053773;28;20122;-75
2023/05/13 09:35:49;;;;;;;9.27;3.72;;;19.70;99.90;;;;;;5049715;28;20124;-75
2023/05/13 09:38:16;;;;;;;8.20;3.53;;;19.80;99.90;;;;;;5034331;28;20124;-75
2023/05/13 09:40:50;;;;;;;10.40;4.47;;;20.00;99.90;;;;;;5038490;28;20042;-75
2023/05/13 09:43:21;;;;;;;7.13;3.90;;;20.10;99.90;;;;;;5043205;28;20061;-75
2023/05/13 09:45:47;;;;;;;9.00;3.55;;;20.10;99.90;;;;;;5054380;28;20072;-75
2023/05/13 09:48:13;;;;;;;6.90;3.80;;;20.20;99.90;;;;;;5052219;28;20060;-75
2023/05/13 09:50:49;;;;;;;6.43;3.60;;;20.20;99.90;;;;;;5054095;28;20532;-75
2023/05/13 09:53:15;;;;;;;8.55;3.70;;;20.30;99.90;;;;;;5053847;28;20089;-75
2023/05/13 09:55:48;;;;;;;7.85;3.33;;;20.30;99.90;;;;;;5034608;28;20103;-75
2023/05/13 09:58:13;;;;;;;7.28;3.63;;;20.40;99.90;;;;;;5061522;28;20052;-75
2023/05/13 10:00:40;;;;;;;8.95;3.85;;;20.50;99.90;;;;;;5053928;28;20044;-75
2023/05/13 10:03:06;;;;;;;9.02;3.65;;;20.50;99.90;;;;;;5052426;28;20493;-75
2023/05/13 10:05:33;;;;;;;7.57;3.35;;;20.50;99.90;;;;;;5064766;28;20050;-75
2023/05/13 10:08:00;;;;;;;5.70;3.08;;;20.50;99.90;;;;;;5045121;28;20037;-75
2023/05/13 10:10:29;;;;;;;7.45;3.50;;;20.60;99.90;;;;;;5052846;28;20239;-75
2023/05/13 10:12:55;;;;;;;7.68;3.58;;;20.70;99.90;;;;;;5045973;28;20167;-75
2023/05/13 10:15:22;;;;;;;10.98;3.50;;;20.80;99.30;;;;;;5034516;28;20555;-75
2023/05/13 10:17:48;;;;;;;6.93;3.30;;;20.90;95.90;;;;;;5050528;28;20049;-75
2023/05/13 10:20:14;;;;;;;8.32;3.38;;;20.80;99.90;;;;;;5034024;28;20069;-76
2023/05/13 10:22:40;;;;;;;7.72;4.07;;;20.90;99.90;;;;;;5045925;28;20069;-75
2023/05/13 10:25:07;;;;;;;7.85;3.53;;;21.00;99.40;;;;;;5053308;28;20047;-75
2023/05/13 10:27:33;;;;;;;7.07;3.65;;;21.00;99.90;;;;;;5051887;28;20048;-76
2023/05/13 10:30:00;;;;;;;8.68;3.72;;;21.00;99.80;;;;;;5047733;28;20033;-75
2023/05/13 10:32:30;;;;;;;8.18;3.78;;;21.00;99.50;;;;;;5034412;28;20129;-77
2023/05/13 10:35:17;;;;;;;7.82;3.78;;;21.10;99.90;;;;;;5066700;28;20045;-73
2023/05/13 10:38:13;;;;;;;9.50;3.50;;;21.20;97.10;;;;;;5051390;28;20045;-73
2023/05/13 10:41:00;;;;;;;10.15;3.67;;;21.20;99.90;;;;;;5046597;28;20550;-73
2023/05/13 10:43:28;;;;;;;8.90;4.13;;;21.30;99.90;;;;;;5052377;28;20071;-73
2023/05/13 10:46:02;;;;;;;7.45;3.72;;;21.40;99.10;;;;;;5035387;28;20390;-73
2023/05/13 10:48:57;;;;;;;9.10;3.47;;;21.40;99.90;;;;;;5051940;28;20485;-73
2023/05/13 10:51:24;;;;;;;7.30;3.80;;;21.40;99.90;;;;;;5043184;28;20149;-73
2023/05/13 10:53:51;;;;;;;9.30;3.92;;;21.30;99.90;;;;;;5037751;28;20144;-73
2023/05/13 10:56:22;;;;;;;8.90;3.92;;;21.40;97.70;;;;;;5050271;28;20037;-73
2023/05/13 10:59:02;;;;;;;6.80;3.55;;;21.40;97.70;;;;;;5045971;28;20051;-72
2023/05/13 11:01:34;;;;;;;8.48;3.72;;;21.50;94.70;;;;;;5041428;28;20481;-73
2023/05/13 11:04:04;;;;;;;9.02;3.67;;;21.50;98.00;;;;;;5051573;28;20041;-73
2023/05/13 11:06:32;;;;;;;7.68;3.00;;;21.50;99.90;;;;;;5052465;28;20047;-73
2023/05/13 11:08:58;;;;;;;8.27;3.25;;;21.40;96.80;;;;;;5051687;28;20045;-73
2023/05/13 11:11:26;;;;;;;8.32;3.70;;;21.50;96.50;;;;;;5044541;28;20132;-73
2023/05/13 11:14:04;;;;;;;8.32;3.60;;;21.50;94.70;;;;;;5041057;28;20083;-73
2023/05/13 11:16:30;;;;;;;6.47;3.42;;;21.50;90.60;;;;;;5041576;28;20477;-73
2023/05/13 11:18:55;;;;;;;8.10;3.67;;;21.50;98.40;;;;;;5051983;28;20043;-73
2023/05/13 11:21:52;;;;;;;10.00;3.30;;;21.50;94.80;;;;;;5053474;28;20056;-73
2023/05/13 11:24:18;;;;;;;8.30;3.58;;;21.70;97.90;;;;;;5041297;28;20049;-73
2023/05/13 11:26:47;;;;;;;7.28;3.72;;;21.70;98.20;;;;;;5030297;28;20037;-72
2023/05/13 11:29:12;;;;;;;7.80;3.72;;;21.60;96.20;;;;;;5049031;28;20393;-73
2023/05/13 11:31:49;;;;;;;9.68;4.13;;;21.60;97.90;;;;;;5043232;28;20108;-73
2023/05/13 11:34:18;;;;;;;5.35;3.05;;;21.70;98.10;;;;;;5034910;28;20034;-73
2023/05/13 11:36:48;;;;;;;6.35;3.40;;;21.60;96.60;;;;;;5032890;28;20040;-73
2023/05/13 11:39:25;;;;;;;7.47;3.53;;;21.60;97.10;;;;;;5033250;28;20550;-73
2023/05/13 11:41:52;;;;;;;8.52;3.30;;;21.70;92.80;;;;;;5047038;28;20028;-73
2023/05/13 11:44:24;;;;;;;7.00;3.38;;;21.70;90.60;;;;;;5053296;28;20051;-73
2023/05/13 11:46:54;;;;;;;9.15;3.35;;;21.70;95.60;;;;;;5053274;28;20455;-73
2023/05/13 11:49:38;;;;;;;8.77;3.58;;;21.70;92.20;;;;;;5052226;28;20449;-72
2023/05/13 11:52:15;;;;;;;8.43;3.83;;;21.80;94.70;;;;;;5052789;28;20494;-73
2023/05/13 11:54:56;;;;;;;6.40;3.75;;;21.80;94.80;;;;;;5053242;28;20041;-73
2023/05/13 11:57:27;;;;;;;10.25;3.22;;;21.70;92.70;;;;;;5067259;28;20080;-73
2023/05/13 11:59:59;;;;;;;8.65;3.78;;;21.80;95.10;;;;;;5052672;28;20066;-72
2023/05/13 12:02:32;;;;;;;7.75;3.70;;;21.80;91.70;;;;;;5047878;28;20041;-73
2023/05/13 12:05:06;;;;;;;7.25;3.80;;;21.80;92.70;;;;;;5032502;28;20130;-73
2023/05/13 12:07:32;;;;;;;8.55;3.55;;;21.70;92.50;;;;;;5048107;28;20029;-73
2023/05/13 12:10:00;;;;;;;8.00;3.40;;;21.60;90.60;;;;;;5050667;28;20052;-73
2023/05/13 12:12:28;;;;;;;10.88;3.20;;;21.70;92.00;;;;;;5054553;28;20041;-73
2023/05/13 12:15:02;;;;;;;8.38;3.35;;;21.70;85.90;;;;;;5025917;28;20045;-74
2023/05/13 12:17:29;;;;;;;6.85;3.10;;;21.80;91.00;;;;;;5050369;28;20409;-74
2023/05/13 12:20:05;;;;;;;8.77;3.40;;;21.80;89.10;;;;;;5049776;28;20378;-73
2023/05/13 12:22:35;;;;;;;8.18;3.45;;;21.70;88.60;;;;;;5044077;28;20539;-73
2023/05/13 12:25:37;;;;;;;12.30;4.18;;;21.50;86.50;;;;;;5047321;28;20049;-74
2023/05/13 12:28:15;;;;;;;7.18;3.38;;;21.50;89.50;;;;;;5035248;28;20037;-74
2023/05/13 12:30:47;;;;;;;5.65;3.17;;;21.60;89.00;;;;;;5051885;28;20052;-74
2023/05/13 12:33:15;;;;;;;7.07;2.83;;;21.80;90.90;;;;;;5052088;28;20558;-74
2023/05/13 12:35:41;;;;;;;6.35;3.15;;;21.90;82.70;;;;;;5049532;28;20049;-74
2023/05/13 12:38:07;;;;;;;8.98;3.38;;;21.80;86.10;;;;;;5050530;28;20119;-74
2023/05/13 12:40:32;;;;;;;8.23;3.28;;;21.80;81.40;;;;;;5034137;28;20120;-74
2023/05/13 12:43:02;;;;;;;6.53;3.17;;;21.80;82.80;;;;;;5052512;28;20083;-74